Carnival Victory — 3FFL8 — position and weather

sailwx.info

Track history (hours):
 
Tides and Currents Weather Stations Pressure Air Temp Water Temp Dewpoint Dewpoint Depression Visibility Wind Speed Wind Dir Waves Ship Positions

Carnival Victory

Operator: Carnival Cruise Lines

Last reported at 2016-Feb-12 00:33 UTC. Time now 2016-Feb-13 00:14 UTC.
Position N 25°19' W 079°57'.

Type: Ship. MMSI: 355263000.

Date/timePositionNaut miles runAvg speedWind from/ knotsBaromVisibWave heightAir tempDewpointWater temp
2016-Feb-12 00:33N 25°19' W 079°57'1414.3
2016-Feb-11 23:33N 25°34' W 079°57'1414.2
2016-Feb-11 22:34N 25°46' W 080°05'5 4.8
2016-Feb-11 21:33N 25°47' W 080°10'0 0.0
2016-Feb-11 20:33N 25°47' W 080°10'0 0.0
2016-Feb-11 19:33N 25°47' W 080°10'0 0.0
2016-Feb-11 18:33N 25°47' W 080°10'0 0.0
2016-Feb-11 17:33N 25°47' W 080°10'0 0.0
2016-Feb-11 16:33N 25°47' W 080°10'0 0.0
2016-Feb-11 15:33N 25°47' W 080°10'0 0.0
2016-Feb-11 14:33N 25°47' W 080°10'0 0.0
2016-Feb-11 13:33N 25°47' W 080°10'0 0.0
2016-Feb-11 12:33N 25°47' W 080°10'2 1.7
2016-Feb-11 11:33N 25°46' W 080°09'10 9.8
2016-Feb-11 10:33N 25°42' W 079°59'1616.1
2016-Feb-11 09:33N 25°26' W 079°57'35216.3
2016-Feb-10 12:00N 21°30' W 084°42'48610.1 1022.010.8 1.523.020.027.0
2016-Feb-08 12:00N 18°42' W 076°36'234 9.7 1016.0 5.4 1.025.022.027.0
2016-Feb-07 12:00N 22°24' W 077°54'19718.5 1014.010.8 1.023.020.027.0
2016-Feb-07 01:20N 25°10' W 079°50'1317.2
2016-Feb-07 00:33N 25°23' W 079°54'1615.8
2016-Feb-06 23:34N 25°38' W 080°00'1010.1
2016-Feb-06 22:33N 25°46' W 080°07'3 2.6
2016-Feb-06 21:31N 25°47' W 080°10'0 0.0
2016-Feb-06 20:31N 25°47' W 080°10'0 0.0
2016-Feb-06 19:31N 25°47' W 080°10'0 0.0
2016-Feb-06 18:31N 25°47' W 080°10'0 0.0
2016-Feb-06 17:31N 25°47' W 080°10'0 0.0
2016-Feb-06 16:31N 25°47' W 080°10'0 0.0
2016-Feb-06 15:31N 25°47' W 080°10'0 0.0
2016-Feb-06 14:31N 25°47' W 080°10'0 0.0
2016-Feb-06 13:31N 25°47' W 080°10'0 0.0
2016-Feb-06 12:31N 25°47' W 080°10'1 0.9
2016-Feb-06 11:33N 25°46' W 080°09'9 9.4
2016-Feb-06 10:33N 25°47' W 079°59'1010.5
2016-Feb-06 09:33N 25°54' W 079°50'1211.4
2016-Feb-06 08:29N 26°00' W 079°38'243 5.5
2016-Feb-04 12:00N 24°06' W 075°42'66 1.4 1015.0 1.024.021.027.0
2016-Feb-02 12:00N 25°12' W 075°42'14418.4 1016.010.8 1.023.020.025.0
2016-Feb-02 04:08N 26°02' W 078°12'1118.5
2016-Feb-02 03:32N 26°05' W 078°24'1818.1
2016-Feb-02 02:33N 26°11' W 078°42'1818.0
2016-Feb-02 01:33N 26°16' W 079°02'  
Track history (hours):
 
Tides and Currents Weather Stations Pressure Air Temp Water Temp Dewpoint Dewpoint Depression Visibility Wind Speed Wind Dir Waves Ship Positions

Carnival Victory

Operator: Carnival Cruise Lines

Last reported at 2016-Feb-12 00:33 UTC. Time now 2016-Feb-13 00:14 UTC.
Position N 25°19' W 079°57'.

Type: Ship. MMSI: 355263000.

Date/timePositionNaut miles runAvg speedWind from/ knotsBaromVisibWave heightAir tempDewpointWater temp
2016-Feb-12 00:33N 25°19' W 079°57'1414.3
2016-Feb-11 23:33N 25°34' W 079°57'1414.2
2016-Feb-11 22:34N 25°46' W 080°05'5 4.8
2016-Feb-11 21:33N 25°47' W 080°10'0 0.0
2016-Feb-11 20:33N 25°47' W 080°10'0 0.0
2016-Feb-11 19:33N 25°47' W 080°10'0 0.0
2016-Feb-11 18:33N 25°47' W 080°10'0 0.0
2016-Feb-11 17:33N 25°47' W 080°10'0 0.0
2016-Feb-11 16:33N 25°47' W 080°10'0 0.0
2016-Feb-11 15:33N 25°47' W 080°10'0 0.0
2016-Feb-11 14:33N 25°47' W 080°10'0 0.0
2016-Feb-11 13:33N 25°47' W 080°10'0 0.0
2016-Feb-11 12:33N 25°47' W 080°10'2 1.7
2016-Feb-11 11:33N 25°46' W 080°09'10 9.8
2016-Feb-11 10:33N 25°42' W 079°59'1616.1
2016-Feb-11 09:33N 25°26' W 079°57'35216.3
2016-Feb-10 12:00N 21°30' W 084°42'48610.1 1022.010.8 1.523.020.027.0
2016-Feb-08 12:00N 18°42' W 076°36'234 9.7 1016.0 5.4 1.025.022.027.0
2016-Feb-07 12:00N 22°24' W 077°54'19718.5 1014.010.8 1.023.020.027.0
2016-Feb-07 01:20N 25°10' W 079°50'1317.2
2016-Feb-07 00:33N 25°23' W 079°54'1615.8
2016-Feb-06 23:34N 25°38' W 080°00'1010.1
2016-Feb-06 22:33N 25°46' W 080°07'3 2.6
2016-Feb-06 21:31N 25°47' W 080°10'0 0.0
2016-Feb-06 20:31N 25°47' W 080°10'0 0.0
2016-Feb-06 19:31N 25°47' W 080°10'0 0.0
2016-Feb-06 18:31N 25°47' W 080°10'0 0.0
2016-Feb-06 17:31N 25°47' W 080°10'0 0.0
2016-Feb-06 16:31N 25°47' W 080°10'0 0.0
2016-Feb-06 15:31N 25°47' W 080°10'0 0.0
2016-Feb-06 14:31N 25°47' W 080°10'0 0.0
2016-Feb-06 13:31N 25°47' W 080°10'0 0.0
2016-Feb-06 12:31N 25°47' W 080°10'1 0.9
2016-Feb-06 11:33N 25°46' W 080°09'9 9.4
2016-Feb-06 10:33N 25°47' W 079°59'1010.5
2016-Feb-06 09:33N 25°54' W 079°50'1211.4
2016-Feb-06 08:29N 26°00' W 079°38'243 5.5
2016-Feb-04 12:00N 24°06' W 075°42'66 1.4 1015.0 1.024.021.027.0
2016-Feb-02 12:00N 25°12' W 075°42'14418.4 1016.010.8 1.023.020.025.0
2016-Feb-02 04:08N 26°02' W 078°12'1118.5
2016-Feb-02 03:32N 26°05' W 078°24'1818.1
2016-Feb-02 02:33N 26°11' W 078°42'1818.0
2016-Feb-02 01:33N 26°16' W 079°02'  

Dump ship's entire track history